Time;durP1;ratioP1;P1;durP2;ratioP2;P2;SDS_P1;SDS_P2;PMS_P1;PMS_P2;Temp;Humidity;BMP_temperature;BMP_pressure;BME280_temperature;BME280_humidity;BME280_pressure;Samples;Min_cycle;Max_cycle;Signal;HPM_P1;HPM_P2
2023/04/22 00:01:33;;;;;;;16.40;12.40;;;;;;;6.05;64.72;100548.45;105874;277;38676;-72
2023/04/22 00:04:07;;;;;;;21.30;14.00;;;;;;;6.04;64.86;100548.48;105897;277;38913;-72
2023/04/22 00:06:41;;;;;;;19.80;12.90;;;;;;;5.99;65.01;100544.91;105923;285;38311;-72
2023/04/22 00:09:15;;;;;;;17.20;11.80;;;;;;;5.92;65.20;100541.70;105926;277;38714;-74
2023/04/22 00:11:49;;;;;;;17.80;11.70;;;;;;;5.88;65.36;100541.60;105539;277;38579;-72
2023/04/22 00:14:23;;;;;;;19.40;12.70;;;;;;;5.87;65.31;100540.23;105557;277;39623;-73
2023/04/22 00:16:57;;;;;;;19.50;12.40;;;;;;;5.87;65.41;100533.48;105511;274;39777;-72
2023/04/22 00:19:31;;;;;;;21.10;13.20;;;;;;;5.86;65.31;100532.80;105511;277;38214;-72
2023/04/22 00:22:06;;;;;;;19.30;13.20;;;;;;;5.85;65.43;100532.82;105525;277;38515;-72
2023/04/22 00:24:40;;;;;;;19.50;13.00;;;;;;;5.81;65.60;100531.85;105533;277;38242;-72
2023/04/22 00:27:14;;;;;;;16.90;12.50;;;;;;;5.76;65.60;100537.11;105526;277;39612;-72
2023/04/22 00:29:48;;;;;;;18.70;12.50;;;;;;;5.71;65.67;100535.46;105536;277;39804;-72
2023/04/22 00:32:25;;;;;;;18.50;12.00;;;;;;;5.66;65.84;100536.58;105909;277;38265;-70
2023/04/22 00:34:59;;;;;;;17.70;12.30;;;;;;;5.63;66.03;100535.39;105559;277;38464;-71
2023/04/22 00:37:33;;;;;;;18.90;13.10;;;;;;;5.62;65.92;100532.13;105523;277;39643;-72
2023/04/22 00:40:10;;;;;;;18.30;12.50;;;;;;;5.61;66.07;100533.02;105544;277;39630;-72
2023/04/22 00:42:44;;;;;;;21.30;13.60;;;;;;;5.57;66.23;100531.85;105912;277;38253;-72
2023/04/22 00:45:19;;;;;;;18.60;13.20;;;;;;;5.53;66.36;100533.64;105920;277;39421;-71
2023/04/22 00:47:53;;;;;;;17.30;12.50;;;;;;;5.49;66.41;100531.27;105366;279;38258;-70
2023/04/22 00:50:27;;;;;;;20.30;11.90;;;;;;;5.47;66.42;100532.52;105602;277;38234;-72
2023/04/22 00:53:01;;;;;;;15.60;12.10;;;;;;;5.47;66.46;100532.70;105543;277;38522;-72
2023/04/22 00:55:35;;;;;;;20.20;12.40;;;;;;;5.45;66.72;100530.66;105473;278;39885;-72
2023/04/22 00:58:09;;;;;;;15.70;11.50;;;;;;;5.42;66.77;100530.00;105478;278;38538;-72
2023/04/22 01:00:43;;;;;;;21.30;12.50;;;;;;;5.38;66.70;100525.55;105502;278;38619;-70
2023/04/22 01:03:17;;;;;;;18.60;12.50;;;;;;;5.35;66.83;100528.89;105479;278;38215;-70
2023/04/22 01:05:51;;;;;;;17.00;12.00;;;;;;;5.32;66.75;100527.02;105896;278;38690;-70
2023/04/22 01:08:28;;;;;;;14.90;10.70;;;;;;;5.31;66.96;100526.86;105397;278;172238;-70
2023/04/22 01:11:02;;;;;;;18.90;12.30;;;;;;;5.30;67.19;100525.67;105504;277;39045;-70
2023/04/22 01:13:37;;;;;;;19.60;12.50;;;;;;;5.29;67.28;100526.20;105539;278;39135;-70
2023/04/22 01:16:11;;;;;;;24.30;13.10;;;;;;;5.28;67.22;100527.09;105893;278;38278;-70
2023/04/22 01:18:45;;;;;;;19.40;13.30;;;;;;;5.25;67.45;100526.10;105485;278;38516;-70
2023/04/22 01:21:19;;;;;;;19.30;12.40;;;;;;;5.22;67.25;100524.41;105869;278;38255;-70
2023/04/22 01:23:54;;;;;;;20.60;12.60;;;;;;;5.18;67.48;100526.00;105486;278;38242;-70
2023/04/22 01:26:28;;;;;;;18.00;13.50;;;;;;;5.15;67.78;100526.39;105524;277;38547;-70
2023/04/22 01:29:03;;;;;;;21.40;13.80;;;;;;;5.13;67.87;100524.34;105964;277;38532;-70
2023/04/22 01:31:36;;;;;;;22.60;15.10;;;;;;;5.11;67.99;100527.30;105986;277;38384;-70
2023/04/22 01:34:10;;;;;;;24.10;15.80;;;;;;;5.10;67.99;100527.14;105979;277;39876;-70
2023/04/22 01:36:45;;;;;;;25.60;15.40;;;;;;;5.09;67.92;100526.30;105069;277;546355;-71
2023/04/22 01:39:19;;;;;;;24.40;13.90;;;;;;;5.04;68.06;100525.50;105428;277;38492;-73
2023/04/22 01:41:53;;;;;;;21.30;13.00;;;;;;;5.01;68.21;100526.58;105977;277;38450;-70
2023/04/22 01:44:27;;;;;;;21.20;14.10;;;;;;;4.99;68.30;100524.18;105988;277;38907;-70
2023/04/22 01:47:01;;;;;;;21.90;13.90;;;;;;;4.99;68.26;100529.54;105580;277;38580;-71
2023/04/22 01:49:35;;;;;;;21.20;14.30;;;;;;;4.98;68.40;100527.66;105597;277;38215;-71
2023/04/22 01:52:09;;;;;;;22.50;14.70;;;;;;;4.95;68.54;100525.61;105978;277;38430;-70
2023/04/22 01:54:43;;;;;;;22.80;14.70;;;;;;;4.90;68.62;100524.81;105964;277;39707;-70
2023/04/22 01:57:17;;;;;;;26.70;15.70;;;;;;;4.85;68.66;100525.22;105593;277;38482;-70
2023/04/22 01:59:51;;;;;;;22.00;13.80;;;;;;;4.82;68.78;100519.39;105564;277;38780;-70
2023/04/22 02:02:25;;;;;;;21.70;14.10;;;;;;;4.81;68.94;100521.13;105555;277;38569;-70
2023/04/22 02:04:59;;;;;;;24.00;15.00;;;;;;;4.76;69.03;100520.32;105567;274;38669;-71
2023/04/22 02:07:33;;;;;;;19.00;13.60;;;;;;;4.74;69.22;100518.27;105550;277;38850;-72
2023/04/22 02:10:08;;;;;;;23.50;14.80;;;;;;;4.71;69.42;100518.31;105940;277;38516;-72
2023/04/22 02:12:42;;;;;;;20.10;13.80;;;;;;;4.66;69.41;100516.98;105946;277;39662;-72
2023/04/22 02:15:16;;;;;;;19.50;13.10;;;;;;;4.62;69.49;100512.88;105600;277;38480;-71
2023/04/22 02:17:51;;;;;;;20.60;13.30;;;;;;;4.59;69.57;100512.04;105583;277;38556;-72
2023/04/22 02:20:26;;;;;;;21.60;14.10;;;;;;;4.59;69.70;100510.48;105917;277;40233;-70
2023/04/22 02:23:00;;;;;;;21.20;13.80;;;;;;;4.60;69.73;100509.96;105440;278;39383;-70
2023/04/22 02:25:34;;;;;;;26.20;14.60;;;;;;;4.58;69.84;100507.73;105442;278;38254;-70
2023/04/22 02:28:08;;;;;;;20.90;13.90;;;;;;;4.55;69.95;100506.56;105499;278;39867;-70
2023/04/22 02:30:42;;;;;;;23.10;13.80;;;;;;;4.50;69.97;100503.33;105456;278;38337;-72
2023/04/22 02:33:16;;;;;;;20.50;12.30;;;;;;;4.47;70.01;100509.08;105890;278;38864;-72
2023/04/22 02:35:50;;;;;;;25.40;13.50;;;;;;;4.47;70.03;100506.83;105442;278;39365;-70
2023/04/22 02:38:24;;;;;;;22.20;14.20;;;;;;;4.45;70.27;100510.12;105466;278;38246;-70
2023/04/22 02:40:58;;;;;;;22.70;15.10;;;;;;;4.43;70.34;100507.05;105222;280;39391;-70
2023/04/22 02:43:32;;;;;;;22.60;14.40;;;;;;;4.39;70.42;100507.60;105480;278;38761;-70
2023/04/22 02:46:09;;;;;;;22.70;15.00;;;;;;;4.32;70.54;100505.25;105464;278;38392;-72
2023/04/22 02:48:43;;;;;;;21.40;13.70;;;;;;;4.28;70.57;100508.75;105446;278;38310;-72
2023/04/22 02:51:17;;;;;;;22.90;14.50;;;;;;;4.27;70.67;100505.67;105449;278;39444;-70
2023/04/22 02:53:51;;;;;;;24.30;15.30;;;;;;;4.24;70.75;100509.13;105462;278;39700;-70
2023/04/22 02:56:26;;;;;;;24.50;16.50;;;;;;;4.24;70.93;100507.59;105893;278;40012;-70
2023/04/22 02:59:00;;;;;;;24.90;15.70;;;;;;;4.21;70.89;100510.38;105472;278;38230;-70
2023/04/22 03:01:34;;;;;;;23.80;15.70;;;;;;;4.17;70.84;100509.72;105899;278;39259;-70
2023/04/22 03:04:08;;;;;;;22.90;15.00;;;;;;;4.14;70.84;100511.14;105468;278;39424;-70
2023/04/22 03:06:43;;;;;;;22.80;14.40;;;;;;;4.11;71.10;100510.63;105466;278;38465;-70
2023/04/22 03:09:17;;;;;;;23.60;13.90;;;;;;;4.09;71.37;100511.69;105474;278;38373;-70
2023/04/22 03:11:51;;;;;;;23.30;14.70;;;;;;;4.10;71.58;100512.73;105468;278;38770;-70
2023/04/22 03:14:25;;;;;;;19.50;14.00;;;;;;;4.08;71.56;100516.36;105911;278;39270;-70
2023/04/22 03:16:59;;;;;;;23.60;14.50;;;;;;;4.08;71.47;100522.75;105476;278;38516;-72
2023/04/22 03:19:33;;;;;;;23.20;14.70;;;;;;;4.07;71.56;100517.94;105279;278;39489;-72
2023/04/22 03:22:08;;;;;;;23.80;14.10;;;;;;;4.04;71.81;100519.16;105250;278;38280;-70
2023/04/22 03:24:42;;;;;;;23.10;14.80;;;;;;;4.03;71.84;100521.08;105458;278;38474;-71
2023/04/22 03:27:16;;;;;;;25.10;14.80;;;;;;;4.03;72.08;100520.39;105475;278;39443;-70
2023/04/22 03:29:51;;;;;;;22.70;15.40;;;;;;;4.03;72.19;100521.77;105868;278;38259;-70
2023/04/22 03:32:25;;;;;;;21.90;14.20;;;;;;;4.03;72.21;100522.46;105236;280;38518;-72
2023/04/22 03:35:02;;;;;;;24.80;15.90;;;;;;;4.01;72.17;100524.19;105897;278;38257;-70
2023/04/22 03:37:36;;;;;;;23.70;15.90;;;;;;;3.97;72.14;100529.23;105448;278;38799;-70
2023/04/22 03:40:12;;;;;;;22.70;15.50;;;;;;;3.96;72.25;100529.25;105482;278;38396;-71
2023/04/22 03:42:46;;;;;;;26.80;17.30;;;;;;;3.98;72.48;100532.33;105901;278;39175;-72
2023/04/22 03:45:20;;;;;;;26.40;17.90;;;;;;;4.00;72.52;100530.42;105872;278;38579;-70
2023/04/22 03:47:54;;;;;;;27.40;17.80;;;;;;;4.00;72.45;100535.08;105455;278;38977;-69
2023/04/22 03:50:28;;;;;;;26.10;16.30;;;;;;;3.99;72.48;100533.20;105916;277;40292;-70
2023/04/22 03:53:02;;;;;;;27.60;17.30;;;;;;;3.96;72.60;100533.91;105858;278;39438;-70
2023/04/22 03:55:37;;;;;;;27.40;16.50;;;;;;;3.98;72.78;100534.76;105491;278;38743;-70
2023/04/22 03:58:11;;;;;;;27.60;16.70;;;;;;;4.01;72.95;100538.02;105463;278;38507;-72
2023/04/22 04:00:45;;;;;;;26.00;16.70;;;;;;;4.05;73.11;100538.66;105524;278;38697;-70
2023/04/22 04:03:20;;;;;;;29.20;17.50;;;;;;;4.09;73.18;100538.98;105453;278;38261;-70
2023/04/22 04:05:54;;;;;;;25.60;16.40;;;;;;;4.14;73.34;100537.90;105892;278;38307;-72
2023/04/22 04:08:28;;;;;;;31.60;16.60;;;;;;;4.19;73.47;100542.51;105490;278;38491;-72
2023/04/22 04:11:02;;;;;;;29.80;16.30;;;;;;;4.26;73.64;100543.30;105542;278;38522;-70
2023/04/22 04:13:37;;;;;;;31.30;17.10;;;;;;;4.35;73.78;100543.23;105217;278;38252;-70
2023/04/22 04:16:11;;;;;;;30.60;16.80;;;;;;;4.47;74.07;100540.16;105262;278;38295;-74
2023/04/22 04:18:46;;;;;;;32.10;17.80;;;;;;;4.67;74.23;100539.61;105781;278;189304;-74
2023/04/22 04:21:21;;;;;;;32.90;17.50;;;;;;;4.87;74.43;100543.69;105266;280;39538;-72
2023/04/22 04:23:56;;;;;;;29.00;17.90;;;;;;;5.26;75.57;100541.80;105475;278;39334;-72
2023/04/22 04:26:31;;;;;;;30.00;17.00;;;;;;;5.79;75.87;100541.56;105887;289;38528;-72
2023/04/22 04:29:07;;;;;;;31.90;16.50;;;;;;;6.16;74.40;100543.41;105473;278;38814;-73
2023/04/22 04:31:44;;;;;;;29.60;17.40;;;;;;;6.63;75.00;100542.38;105250;278;38369;-72
2023/04/22 04:34:18;;;;;;;28.40;17.20;;;;;;;7.32;76.05;100543.58;105878;278;39517;-73
2023/04/22 04:36:55;;;;;;;32.20;17.30;;;;;;;8.46;75.88;100540.45;105487;278;39616;-74
2023/04/22 04:39:31;;;;;;;32.20;18.00;;;;;;;9.67;73.07;100537.99;105900;278;39288;-74
2023/04/22 04:42:06;;;;;;;32.20;18.80;;;;;;;10.78;69.98;100538.82;105899;278;39438;-73
2023/04/22 04:44:41;;;;;;;33.80;18.70;;;;;;;11.74;66.41;100539.55;105894;278;39059;-73
2023/04/22 04:47:18;;;;;;;33.90;18.60;;;;;;;12.64;63.38;100535.95;105907;278;39378;-71
2023/04/22 04:49:53;;;;;;;32.70;18.40;;;;;;;13.53;60.30;100532.78;105528;278;38345;-71
2023/04/22 04:52:28;;;;;;;31.30;18.40;;;;;;;14.29;58.06;100533.95;105474;278;38211;-71
2023/04/22 04:55:03;;;;;;;23.70;15.20;;;;;;;15.18;54.74;100534.89;105892;278;38451;-72
2023/04/22 04:57:41;;;;;;;24.60;15.30;;;;;;;16.04;52.19;100535.54;105463;278;39402;-71
2023/04/22 05:00:17;;;;;;;19.40;11.20;;;;;;;16.80;48.94;100531.19;105505;278;38261;-73
2023/04/22 05:02:51;;;;;;;20.40;11.50;;;;;;;17.40;46.46;100529.57;105525;278;38459;-73
2023/04/22 05:05:26;;;;;;;12.80;8.70;;;;;;;17.57;45.22;100529.04;105498;278;38482;-72
2023/04/22 05:08:00;;;;;;;9.50;7.90;;;;;;;17.45;43.50;100531.59;105502;278;38848;-72
2023/04/22 05:10:35;;;;;;;12.70;8.20;;;;;;;17.40;42.45;100536.85;105522;278;38255;-73
2023/04/22 05:13:10;;;;;;;10.40;7.60;;;;;;;17.44;41.80;100533.92;105519;285;39710;-73
2023/04/22 05:15:47;;;;;;;10.70;7.50;;;;;;;17.53;41.93;100532.94;105533;278;38886;-73
2023/04/22 05:18:22;;;;;;;13.60;7.50;;;;;;;17.68;41.39;100531.84;105242;274;38269;-74
2023/04/22 05:20:58;;;;;;;9.50;7.00;;;;;;;17.58;40.79;100530.90;105308;278;40177;-73
2023/04/22 05:23:35;;;;;;;9.80;6.60;;;;;;;17.49;40.34;100527.92;105523;278;38202;-73
2023/04/22 05:26:09;;;;;;;10.10;6.80;;;;;;;17.68;40.43;100526.94;105495;278;38864;-72
2023/04/22 05:28:43;;;;;;;10.60;6.90;;;;;;;18.18;40.17;100524.65;105437;278;39439;-72
2023/04/22 05:31:17;;;;;;;10.30;6.90;;;;;;;18.78;39.10;100526.73;105447;278;38473;-71
2023/04/22 05:33:51;;;;;;;12.40;7.70;;;;;;;19.37;37.62;100528.42;105402;278;39447;-71
2023/04/22 05:36:26;;;;;;;10.10;6.70;;;;;;;19.84;37.43;100527.13;105457;278;38215;-73
2023/04/22 05:39:00;;;;;;;11.30;6.70;;;;;;;20.37;37.12;100525.98;105890;278;39802;-75
2023/04/22 05:41:34;;;;;;;11.20;7.10;;;;;;;21.05;36.12;100526.89;105462;278;38898;-72
2023/04/22 05:44:08;;;;;;;11.20;6.70;;;;;;;21.55;34.83;100520.96;105459;278;38595;-72
2023/04/22 05:46:42;;;;;;;10.50;7.30;;;;;;;22.05;34.14;100520.14;105462;278;38413;-74
2023/04/22 05:49:16;;;;;;;12.50;6.70;;;;;;;22.49;33.63;100514.30;105890;278;39601;-74
2023/04/22 05:51:50;;;;;;;8.40;6.30;;;;;;;23.05;32.51;100517.52;105411;278;39649;-74
2023/04/22 05:54:24;;;;;;;10.00;7.30;;;;;;;23.52;31.41;100514.16;105423;278;38487;-74
2023/04/22 05:56:58;;;;;;;10.80;7.00;;;;;;;23.99;30.90;100517.30;105438;278;38625;-74
2023/04/22 05:59:32;;;;;;;11.10;7.00;;;;;;;24.60;30.39;100513.88;105447;278;38487;-74
2023/04/22 06:02:06;;;;;;;13.10;7.20;;;;;;;24.87;29.16;100510.59;105889;278;38648;-73
2023/04/22 06:04:41;;;;;;;10.90;7.10;;;;;;;25.32;28.80;100508.99;104673;278;889708;-72
2023/04/22 06:07:15;;;;;;;10.60;7.70;;;;;;;25.68;27.67;100509.33;105456;278;39850;-73
2023/04/22 06:09:50;;;;;;;14.80;8.70;;;;;;;26.02;27.11;100509.11;105448;278;38668;-73
2023/04/22 06:12:25;;;;;;;14.70;7.60;;;;;;;26.07;26.86;100512.61;105479;278;39646;-73
2023/04/22 06:15:01;;;;;;;12.00;7.30;;;;;;;26.14;26.55;100513.13;105255;278;38786;-74
2023/04/22 06:17:39;;;;;;;10.50;8.10;;;;;;;26.35;26.26;100512.65;105476;278;38736;-74
2023/04/22 06:20:25;;;;;;;13.10;8.00;;;;;;;26.60;25.54;100504.15;105473;278;38420;-74
2023/04/22 06:22:59;;;;;;;15.10;8.40;;;;;;;26.94;26.02;100506.35;105338;278;173485;-74
2023/04/22 06:25:33;;;;;;;11.70;7.50;;;;;;;27.23;25.49;100504.91;105470;278;38861;-74
2023/04/22 06:28:09;;;;;;;14.70;8.00;;;;;;;27.57;24.99;100506.98;105254;279;38543;-74
2023/04/22 06:30:44;;;;;;;15.10;8.40;;;;;;;28.02;24.34;100508.08;105805;278;173344;-75
2023/04/22 06:33:18;;;;;;;14.30;8.20;;;;;;;28.28;23.95;100502.14;105463;278;39700;-75
2023/04/22 06:35:53;;;;;;;11.60;8.30;;;;;;;28.31;23.58;100501.48;105445;278;39731;-75
2023/04/22 06:38:28;;;;;;;13.60;9.10;;;;;;;28.19;23.80;100499.77;105441;278;39602;-75
2023/04/22 06:41:02;;;;;;;20.10;9.90;;;;;;;28.29;23.42;100503.29;105915;278;39711;-76
2023/04/22 06:43:36;;;;;;;15.20;8.80;;;;;;;28.45;23.13;100499.33;105456;278;38927;-76
2023/04/22 06:46:11;;;;;;;19.00;8.80;;;;;;;28.53;22.98;100499.54;105440;281;38503;-75
2023/04/22 06:48:45;;;;;;;24.30;10.40;;;;;;;28.38;22.88;100500.47;105427;278;39340;-76
2023/04/22 06:51:19;;;;;;;20.40;10.00;;;;;;;28.20;23.28;100501.91;105493;278;38255;-74
2023/04/22 06:53:53;;;;;;;24.40;10.00;;;;;;;28.14;23.33;100498.99;105450;278;38511;-74
2023/04/22 06:56:27;;;;;;;19.30;10.00;;;;;;;27.91;23.54;100497.80;105904;278;39114;-75
2023/04/22 06:59:01;;;;;;;25.80;10.90;;;;;;;27.55;24.15;100501.67;105879;278;39954;-75
2023/04/22 07:01:35;;;;;;;20.40;10.50;;;;;;;27.24;24.14;100496.19;105430;278;39671;-75
2023/04/22 07:04:09;;;;;;;13.40;6.90;;;;;;;27.23;24.42;100499.00;105497;278;38531;-75
2023/04/22 07:06:44;;;;;;;8.60;6.00;;;;;;;27.18;23.47;100497.56;105893;278;38920;-75
2023/04/22 07:09:18;;;;;;;11.00;6.30;;;;;;;27.15;24.40;100495.32;105452;278;39147;-75
2023/04/22 07:11:57;;;;;;;7.90;5.50;;;;;;;27.19;23.98;100496.92;105912;278;38508;-74
2023/04/22 07:14:35;;;;;;;8.60;5.60;;;;;;;27.42;23.39;100500.58;105475;278;39368;-74
2023/04/22 07:17:09;;;;;;;7.00;5.30;;;;;;;27.78;23.84;100500.98;105350;278;39426;-75
2023/04/22 07:19:43;;;;;;;9.90;5.80;;;;;;;28.35;22.55;100496.86;105894;278;38624;-75
2023/04/22 07:22:17;;;;;;;9.00;6.10;;;;;;;28.61;21.91;100499.16;105477;282;39943;-75
2023/04/22 07:24:53;;;;;;;8.60;5.80;;;;;;;28.83;21.33;100490.93;105467;275;38829;-75
2023/04/22 07:27:27;;;;;;;10.70;6.30;;;;;;;29.06;21.87;100496.31;105901;278;39424;-76
2023/04/22 07:30:01;;;;;;;7.20;5.10;;;;;;;29.56;21.55;100492.27;105898;278;38698;-75
2023/04/22 07:32:36;;;;;;;7.80;5.20;;;;;;;30.17;21.23;100490.58;105884;278;38373;-76
2023/04/22 07:35:11;;;;;;;6.60;4.70;;;;;;;30.64;19.66;100485.59;105480;278;38724;-75
2023/04/22 07:37:45;;;;;;;7.40;4.90;;;;;;;30.64;18.93;100489.91;105895;278;38717;-75
2023/04/22 07:40:19;;;;;;;7.50;4.50;;;;;;;30.69;20.34;100483.59;104818;278;886574;-76
2023/04/22 07:42:53;;;;;;;9.50;4.10;;;;;;;31.25;19.74;100487.00;105468;277;38256;-76
2023/04/22 07:45:27;;;;;;;7.10;4.30;;;;;;;31.83;19.43;100484.23;105340;278;188166;-76
2023/04/22 07:48:02;;;;;;;6.00;3.90;;;;;;;32.24;19.02;100482.83;105477;278;39607;-76
2023/04/22 07:50:35;;;;;;;9.60;5.30;;;;;;;32.41;18.61;100480.86;105363;279;39500;-77
2023/04/22 07:53:10;;;;;;;8.20;4.60;;;;;;;32.38;16.96;100480.66;105483;278;39459;-76
2023/04/22 07:55:44;;;;;;;7.00;4.80;;;;;;;32.42;17.56;100483.74;105477;278;39164;-73
2023/04/22 07:58:18;;;;;;;10.50;4.70;;;;;;;32.46;17.55;100481.77;104636;278;885790;-73
2023/04/22 08:00:52;;;;;;;9.00;4.00;;;;;;;32.41;17.17;100483.48;105492;278;39650;-74
2023/04/22 08:03:26;;;;;;;8.70;3.90;;;;;;;32.46;16.77;100481.40;105901;278;39424;-77
2023/04/22 08:06:01;;;;;;;5.70;3.60;;;;;;;32.52;16.62;100481.72;105501;278;38398;-76
2023/04/22 08:08:35;;;;;;;7.40;4.60;;;;;;;32.67;15.80;100484.48;105352;279;38367;-77
2023/04/22 08:11:09;;;;;;;10.20;4.60;;;;;;;32.61;15.96;100486.36;105484;278;38475;-76
2023/04/22 08:13:43;;;;;;;7.40;4.90;;;;;;;32.75;16.51;100486.48;105509;278;38453;-76
2023/04/22 08:16:20;;;;;;;6.40;4.60;;;;;;;32.99;15.96;100485.17;105478;278;39451;-76
2023/04/22 08:18:59;;;;;;;8.30;4.90;;;;;;;33.31;16.36;100481.55;105341;278;39465;-76
2023/04/22 08:21:36;;;;;;;10.20;5.70;;;;;;;33.62;16.32;100482.57;105274;279;39001;-75
2023/04/22 08:24:10;;;;;;;8.20;5.20;;;;;;;33.76;15.74;100478.37;105874;278;40255;-74
2023/04/22 08:26:44;;;;;;;10.60;4.70;;;;;;;33.93;15.98;100481.14;105085;278;38479;-76
2023/04/22 08:29:21;;;;;;;10.20;4.50;;;;;;;34.13;15.67;100476.73;105510;277;38389;-79
2023/04/22 08:31:55;;;;;;;8.60;3.90;;;;;;;34.31;15.03;100475.63;105988;278;38385;-79
2023/04/22 08:34:30;;;;;;;5.40;3.70;;;;;;;34.24;14.93;100474.80;105596;278;38226;-80
2023/04/22 08:37:04;;;;;;;6.50;3.50;;;;;;;34.08;15.23;100480.95;105514;278;38246;-77
2023/04/22 08:39:38;;;;;;;6.20;4.10;;;;;;;34.12;15.59;100474.81;105911;278;38457;-78
2023/04/22 08:42:13;;;;;;;4.80;3.90;;;;;;;34.33;15.16;100474.58;105997;278;38557;-80
2023/04/22 08:44:54;;;;;;;5.80;3.60;;;;;;;34.38;15.91;100470.48;105321;278;38234;-79
2023/04/22 08:47:28;;;;;;;6.20;3.20;;;;;;;34.60;14.98;100470.91;105282;280;39380;-78
2023/04/22 08:50:08;;;;;;;3.60;3.10;;;;;;;34.42;14.81;100471.02;105481;278;39396;-76
2023/04/22 08:52:46;;;;;;;5.40;2.80;;;;;;;34.27;14.56;100469.12;105368;279;39676;-78
2023/04/22 08:55:21;;;;;;;3.30;2.90;;;;;;;34.33;14.95;100465.67;105347;278;38344;-78
2023/04/22 08:57:56;;;;;;;5.10;3.30;;;;;;;34.54;14.72;100464.29;105285;278;38231;-78
2023/04/22 09:00:33;;;;;;;2.70;2.30;;;;;;;34.45;14.66;100461.02;105509;278;39376;-76
2023/04/22 09:03:11;;;;;;;;;;;;;;;34.34;14.53;100462.91;105595;278;38272;-77
2023/04/22 09:05:46;;;;;;;4.00;2.70;;;;;;;34.10;14.61;100466.00;105960;278;38384;-77
2023/04/22 09:08:21;;;;;;;5.80;2.70;;;;;;;34.29;14.75;100462.63;105484;278;38216;-75
2023/04/22 09:10:58;;;;;;;3.30;2.30;;;;;;;34.53;13.75;100460.61;105336;279;38507;-75
2023/04/22 09:13:38;;;;;;;3.60;2.20;;;;;;;34.58;14.11;100460.38;105244;278;39121;-75
2023/04/22 09:16:16;;;;;;;4.70;2.00;;;;;;;34.74;14.08;100457.58;105577;278;38994;-75
2023/04/22 09:18:51;;;;;;;;;;;;;;;34.79;13.43;100456.05;105566;278;38402;-76
2023/04/22 09:21:27;;;;;;;4.10;2.60;;;;;;;34.45;13.91;100456.43;105285;278;38276;-74
2023/04/22 09:24:02;;;;;;;3.00;2.40;;;;;;;34.30;14.16;100455.32;105325;278;38905;-75
2023/04/22 09:26:39;;;;;;;2.50;2.30;;;;;;;34.16;14.61;100450.99;105907;278;39893;-75
2023/04/22 09:29:17;;;;;;;2.80;2.30;;;;;;;33.79;15.06;100450.09;105271;279;38211;-75
2023/04/22 09:31:53;;;;;;;3.70;2.50;;;;;;;33.43;14.70;100448.23;105238;278;38599;-75
2023/04/22 09:34:27;;;;;;;3.90;2.50;;;;;;;33.19;15.15;100445.70;105456;277;39585;-75
2023/04/22 09:37:01;;;;;;;3.00;2.20;;;;;;;32.94;15.33;100439.93;104914;278;527907;-75
2023/04/22 09:39:36;;;;;;;4.70;2.40;;;;;;;32.32;15.55;100446.77;105433;278;39727;-75
2023/04/22 09:42:11;;;;;;;2.80;2.40;;;;;;;31.56;15.54;100445.71;105475;278;38815;-77
2023/04/22 09:44:46;;;;;;;3.70;2.60;;;;;;;30.80;16.30;100440.40;105446;278;39415;-78
2023/04/22 09:47:25;;;;;;;3.60;2.30;;;;;;;30.49;17.36;100436.63;105506;278;38237;-78
2023/04/22 09:50:00;;;;;;;3.70;2.50;;;;;;;30.28;17.49;100431.81;105958;278;38525;-77
2023/04/22 09:52:36;;;;;;;3.50;2.10;;;;;;;29.99;17.59;100429.20;105286;279;38221;-76
2023/04/22 09:55:12;;;;;;;3.20;2.20;;;;;;;29.62;17.18;100430.27;105914;278;38511;-76
2023/04/22 09:57:47;;;;;;;5.50;2.30;;;;;;;29.00;17.16;100428.02;105486;278;38262;-76
2023/04/22 10:00:22;;;;;;;3.80;2.50;;;;;;;28.38;18.54;100422.98;105931;278;38593;-76
2023/04/22 10:02:56;;;;;;;4.00;2.00;;;;;;;28.11;18.59;100423.60;105107;278;39252;-74
2023/04/22 10:05:36;;;;;;;3.00;2.50;;;;;;;27.97;19.03;100424.48;105472;278;38534;-73
2023/04/22 10:08:11;;;;;;;3.70;2.20;;;;;;;27.88;19.14;100422.95;105289;278;40630;-73
2023/04/22 10:10:46;;;;;;;3.20;2.40;;;;;;;27.72;19.18;100420.74;105449;278;40027;-74
2023/04/22 10:13:21;;;;;;;4.00;2.20;;;;;;;27.45;19.16;100420.73;105470;278;38791;-74
2023/04/22 10:16:02;;;;;;;2.80;2.00;;;;;;;27.21;19.08;100417.13;105455;278;39603;-73
2023/04/22 10:18:40;;;;;;;3.00;1.90;;;;;;;27.03;19.30;100417.86;105477;278;38974;-73
2023/04/22 10:21:15;;;;;;;2.90;2.00;;;;;;;26.87;19.01;100413.98;105443;278;38253;-74
2023/04/22 10:23:50;;;;;;;4.70;2.10;;;;;;;26.67;19.20;100415.25;105456;278;38373;-73
2023/04/22 10:26:50;;;;;;;2.40;1.60;;;;;;;26.54;19.42;100416.93;105800;278;173665;-74
2023/04/22 10:29:25;;;;;;;3.50;2.20;;;;;;;26.30;19.73;100412.39;105471;278;38237;-74
2023/04/22 10:32:06;;;;;;;4.50;2.20;;;;;;;26.10;20.12;100408.06;105292;278;40037;-72
2023/04/22 10:34:44;;;;;;;5.80;1.90;;;;;;;26.06;20.26;100404.56;105445;278;39403;-77
2023/04/22 10:37:21;;;;;;;3.30;1.80;;;;;;;26.03;20.50;100403.60;105487;278;38207;-74
2023/04/22 10:40:10;;;;;;;3.40;1.80;;;;;;;25.85;20.77;100409.48;105437;278;38341;-74
2023/04/22 10:42:50;;;;;;;3.90;1.90;;;;;;;25.63;20.60;100406.21;105870;278;39442;-76
2023/04/22 10:45:26;;;;;;;2.60;1.70;;;;;;;25.44;21.25;100400.64;105449;278;39347;-73
2023/04/22 10:48:04;;;;;;;4.40;1.80;;;;;;;25.45;21.90;100402.06;105289;278;38247;-73
2023/04/22 10:50:40;;;;;;;3.70;2.10;;;;;;;25.36;21.04;100397.98;105506;278;39400;-76
2023/04/22 10:53:41;;;;;;;2.70;2.00;;;;;;;25.10;20.27;100400.02;105910;275;39523;-76
2023/04/22 10:56:21;;;;;;;2.80;1.80;;;;;;;24.91;20.67;100393.48;105146;279;173737;-77
2023/04/22 10:58:57;;;;;;;2.50;2.00;;;;;;;24.84;21.07;100390.42;105452;278;38267;-75
2023/04/22 11:01:32;;;;;;;4.00;2.20;;;;;;;24.81;20.88;100391.96;105450;278;39210;-74
2023/04/22 11:04:24;;;;;;;3.60;2.10;;;;;;;24.68;20.85;100388.23;105436;277;39367;-77
2023/04/22 11:07:19;;;;;;;6.80;2.00;;;;;;;24.31;21.17;100384.55;105325;278;39481;-76
2023/04/22 11:10:14;;;;;;;2.90;2.00;;;;;;;23.88;21.25;100390.73;105529;277;39250;-77
2023/04/22 11:12:49;;;;;;;6.10;2.10;;;;;;;23.34;21.92;100390.65;105436;277;173720;-73
2023/04/22 11:15:24;;;;;;;2.30;2.00;;;;;;;23.02;22.98;100387.49;105309;278;38833;-74
2023/04/22 11:17:58;;;;;;;3.30;1.80;;;;;;;22.79;23.89;100386.17;105233;277;173813;-74
2023/04/22 11:20:33;;;;;;;2.90;2.20;;;;;;;22.55;24.22;100385.66;105539;277;38243;-75
2023/04/22 11:23:07;;;;;;;5.00;2.20;;;;;;;22.34;24.98;100381.84;105897;277;38468;-76
2023/04/22 11:25:42;;;;;;;3.10;1.90;;;;;;;22.18;25.31;100378.95;105291;277;39290;-76
2023/04/22 11:28:19;;;;;;;4.40;2.50;;;;;;;22.06;25.32;100378.02;105524;277;38392;-75
2023/04/22 11:30:53;;;;;;;2.50;2.30;;;;;;;21.91;25.55;100372.86;105534;278;38472;-74
2023/04/22 11:33:28;;;;;;;4.00;2.20;;;;;;;21.74;26.14;100369.88;105409;278;173825;-74
2023/04/22 11:36:02;;;;;;;4.90;2.40;;;;;;;21.62;26.55;100369.61;105492;277;38357;-74
2023/04/22 11:38:36;;;;;;;3.40;2.10;;;;;;;21.48;26.71;100369.55;105488;277;39419;-74
2023/04/22 11:41:11;;;;;;;2.80;1.90;;;;;;;21.37;27.50;100367.81;105529;277;38252;-74
2023/04/22 11:43:51;;;;;;;4.60;2.00;;;;;;;21.26;27.09;100372.80;105538;277;38364;-82
2023/04/22 11:46:37;;;;;;;2.20;1.90;;;;;;;21.16;27.51;100370.98;105954;277;38803;-78
2023/04/22 11:49:19;;;;;;;4.60;2.60;;;;;;;21.10;27.94;100372.02;105531;277;38226;-78
2023/04/22 11:51:57;;;;;;;4.60;3.20;;;;;;;21.04;27.39;100369.45;105516;277;38236;-82
2023/04/22 11:54:38;;;;;;;28.60;22.50;;;;;;;21.02;27.87;100370.21;105332;277;39274;-82
2023/04/22 11:57:15;;;;;;;37.40;29.10;;;;;;;21.00;27.52;100371.40;105510;277;38349;-78